Kezdőlap
METAR-TAF:

METAR-TAF

Repülőterek :

Bahawalpur, Pakisztán

földrajzi szélesség: 29-20-53N, földrajzi hosszúság: 71-43-04E, magasság: 119 m

METAR: hiányzik

Idő: 15:32 (10:32 UTC)

Előrejelzés

A jelentés 23 órával és 32 perccel ezelõtt készült, 11:00 UTC
Az előrejelzés 23-én 12 óra UTC és 24-én 12 óra UTC között érvényes
Északkeleti szél 10 kt
Látótávolság: 4000 m
Kevés felhő 4000 lábon
füst
Valószínűség 30% :
24-én 00 óra UTC és 24-én 04 óra UTC között ideiglenes
Északkeleti szél 5 kt
Látótávolság: 2500 m
füst,

TAF: OPBW 231100Z 2312/2412 05010KT 4000 FU FEW040 TN21/2401Z TX36/2410Z PROB30 TEMPO 2400/2404 05005KT 2500 FU NSC

Meteorológiai megfigyelések és előrejelzések több, mint 4000 repülőtéren (METAR és TAF jelentéseket).

A térképen piros és sárga pontok jelzik az elérhető meteorológiai állomásokat.

Mozgassa az egeret a pont fölött, hogy megjelenjen az állomás neve.

Azután kattintson az időjárási megfigyelések és előrejelzések megtekintéséhez.

A térkép megváltoztatása: kattintson a fekete keresztel jelölt zöld gombra ráközelítéshez, a vonallal jelölt zöld gombra távolításhoz, vagy a zöld nyilakra a szomszédos térképek eléréséhez.


METAR-TAF: